YCV weather

CLOSED Cartierville Airport
Montreal, Quebec, Canada

Public forecast

Using degrees Celsius for public forecast. Weather courtesy of forecast.io.

Closest aviation weather report (METAR) to Cartierville Airport

Closest report is Montreal / Pierre Elliott Trudeau International Airport, 2.9 nm (5.5 km) SSW. Retrieved 2019/11/17 16:00 UTC (24 minutes ago):

CYUL 171600Z 02007KT 15SM FEW200 BKN250 M06/M12 A3043 RMK CC2CI3 SLP309

Closest aviation forecast (TAF) to Cartierville Airport

Closest forecast is Montreal / Pierre Elliott Trudeau International Airport, 2.9 nm (5.5 km) SSW. Retrieved 2019/11/17 15:42 UTC (42 minutes ago):

TAF CYUL 171438Z 1715/1812 04010KT P6SM SCT210 FM180900 03010KT P6SM FEW020 RMK NXT FCST BY 171800Z